»·PEaware :: N75232 KSAN-KSBA

N75232 :: KSAN-KSBA

FLIGHT INFORMATION

Flight Status: Arrived
Operator: Privately registered:
United States
More flights under this callsign
Pilot: Daniel B. (28719)
Aircraft: CESSNA 172 SKYHAWK
(C172)
More flights by this aircraft type
Origin: KSAN San Diego Intl-Lindbergh
United States
Destination: KSBA Santa Barbara Mun
United States
More flights between these airports :: More routes between these airports
Route: +OCN V23 LAX V299 VTU VTU282 KWANG
File this flight plan on PilotEdge
Remarks:
Altitude:
(Current/Filed)
6,000ft
Speed:
(Current/Filed)
115kts
Departed: 13-Aug-20 07:44 AM
Arrived: 13-Aug-20 09:31 AM
Distance/Time
Traveled:
167nm/1:47
Distance/Time
To Go:
Arrived

Flight Plot

Page will automatically refresh every two minutes.


Map Options




Map Legend


Flown Route
Filed Route
Departure Airport
Arrival Airport
Navaid (VOR, NDB)
Fix

Horizontal Profiles

Position Reports

Time Latitude Longitude Heading Altitude Ground
Speed
13-Aug-20 07:22 32.732063 -117.193350 285 17ft 0kts
13-Aug-20 07:23 32.732063 -117.193350 285 17ft 0kts
13-Aug-20 07:24 32.732063 -117.193350 285 17ft 0kts
13-Aug-20 07:25 32.732063 -117.193350 285 17ft 0kts
13-Aug-20 07:26 32.732063 -117.193350 285 17ft 0kts
13-Aug-20 07:27 32.732063 -117.193350 285 17ft 0kts
13-Aug-20 07:28 32.732063 -117.193350 285 17ft 0kts
13-Aug-20 07:29 32.732063 -117.193350 285 17ft 0kts
13-Aug-20 07:30 32.732063 -117.193350 285 17ft 0kts
13-Aug-20 07:31 32.732063 -117.193350 285 17ft 0kts
13-Aug-20 07:32 32.732063 -117.193350 285 17ft 0kts
13-Aug-20 07:33 32.732063 -117.193350 285 17ft 0kts
13-Aug-20 07:34 32.732063 -117.193350 285 17ft 0kts
13-Aug-20 07:35 32.732063 -117.193350 285 17ft 0kts
13-Aug-20 07:36 32.732063 -117.193350 285 17ft 0kts
13-Aug-20 07:37 32.732975 -117.192040 49 16ft 2kts
13-Aug-20 07:38 32.732365 -117.189013 105 15ft 13kts
13-Aug-20 07:39 32.731301 -117.184628 106 14ft 14kts
13-Aug-20 07:40 32.730242 -117.180225 104 14ft 15kts
13-Aug-20 07:41 32.729466 -117.176936 76 18ft 0kts
13-Aug-20 07:42 32.729499 -117.176787 71 19ft 0kts
13-Aug-20 07:43 32.732232 -117.184436 286 163ft 77kts
13-Aug-20 07:44 32.748014 -117.200765 323 1168ft 77kts
13-Aug-20 07:45 32.765297 -117.215745 323 2117ft 78kts
13-Aug-20 07:46 32.783288 -117.230462 322 2999ft 79kts
13-Aug-20 07:47 32.802547 -117.243816 335 3834ft 81kts
13-Aug-20 07:48 32.829762 -117.253110 343 4015ft 118kts
13-Aug-20 07:49 32.862031 -117.263566 340 4010ft 116kts
13-Aug-20 07:50 32.892595 -117.275437 336 4035ft 116kts
13-Aug-20 07:51 32.922067 -117.287202 339 4497ft 104kts
13-Aug-20 07:52 32.948704 -117.299079 333 5176ft 102kts
13-Aug-20 07:54 32.975460 -117.310295 336 5851ft 102kts
13-Aug-20 07:55 33.004928 -117.323044 335 6020ft 119kts
13-Aug-20 07:56 33.036824 -117.335115 340 6003ft 122kts
13-Aug-20 07:57 33.068704 -117.347809 337 6011ft 122kts
13-Aug-20 07:58 33.100859 -117.360059 337 6009ft 121kts
13-Aug-20 07:59 33.132872 -117.372817 340 6017ft 121kts
13-Aug-20 08:00 33.164929 -117.385007 335 6015ft 121kts
13-Aug-20 08:01 33.196237 -117.399150 337 6034ft 120kts
13-Aug-20 08:02 33.228646 -117.411435 336 6007ft 120kts
13-Aug-20 08:03 33.255667 -117.434001 321 5991ft 118kts
13-Aug-20 08:04 33.281258 -117.458144 313 6024ft 115kts
13-Aug-20 08:05 33.304138 -117.485893 309 6014ft 117kts
13-Aug-20 08:06 33.326868 -117.514292 312 5975ft 117kts
13-Aug-20 08:07 33.351403 -117.539540 319 6017ft 118kts
13-Aug-20 08:08 33.373873 -117.567782 308 6005ft 117kts
13-Aug-20 08:09 33.395303 -117.597162 310 6010ft 116kts
13-Aug-20 08:10 33.417072 -117.625831 305 6003ft 117kts
13-Aug-20 08:10 33.434326 -117.650789 308 6009ft 117kts
13-Aug-20 08:12 33.457950 -117.686205 300 6018ft 116kts
13-Aug-20 08:13 33.477389 -117.717476 304 5996ft 118kts
13-Aug-20 08:13 33.494570 -117.743010 305 5975ft 117kts
13-Aug-20 08:15 33.518489 -117.777911 305 6009ft 116kts
13-Aug-20 08:15 33.535068 -117.803528 302 5986ft 117kts
13-Aug-20 08:16 33.553492 -117.835447 301 5992ft 116kts
13-Aug-20 08:18 33.575377 -117.872552 302 5985ft 116kts
13-Aug-20 08:18 33.591933 -117.898167 305 5990ft 116kts
13-Aug-20 08:19 33.613155 -117.927834 306 5996ft 116kts
13-Aug-20 08:20 33.632715 -117.958899 304 6000ft 116kts
13-Aug-20 08:21 33.652207 -117.989787 305 6005ft 116kts
13-Aug-20 08:22 33.672264 -118.020557 306 6011ft 116kts
13-Aug-20 08:23 33.691757 -118.051555 301 6016ft 116kts
13-Aug-20 08:24 33.709737 -118.083895 301 6021ft 116kts
13-Aug-20 08:25 33.730681 -118.113390 310 6021ft 117kts
13-Aug-20 08:26 33.751014 -118.142462 301 5996ft 117kts
13-Aug-20 08:27 33.768879 -118.171599 306 6009ft 116kts
13-Aug-20 08:28 33.786872 -118.197987 306 6014ft 116kts
13-Aug-20 08:29 33.804151 -118.224061 305 6019ft 116kts
13-Aug-20 08:30 33.820193 -118.250760 302 5975ft 117kts
13-Aug-20 08:31 33.836038 -118.277312 302 5987ft 115kts
13-Aug-20 08:32 33.852193 -118.303498 304 5986ft 116kts
13-Aug-20 08:33 33.868262 -118.330726 300 5995ft 116kts
13-Aug-20 08:34 33.885784 -118.357555 307 6003ft 116kts
13-Aug-20 08:35 33.904094 -118.384482 303 6006ft 116kts
13-Aug-20 08:36 33.924161 -118.413403 305 5998ft 117kts
13-Aug-20 08:37 33.940925 -118.453162 284 6001ft 115kts
13-Aug-20 08:38 33.954567 -118.498767 290 6005ft 114kts
13-Aug-20 08:39 33.966053 -118.534524 289 6012ft 114kts
13-Aug-20 08:40 33.978604 -118.570380 291 5989ft 116kts
13-Aug-20 08:41 33.989752 -118.606350 287 6005ft 114kts
13-Aug-20 08:42 33.999269 -118.643027 288 6012ft 114kts
13-Aug-20 08:43 34.012723 -118.678222 293 6005ft 116kts
13-Aug-20 08:44 34.026756 -118.713063 289 6015ft 115kts
13-Aug-20 08:45 34.036348 -118.749952 283 6002ft 115kts
13-Aug-20 08:46 34.044384 -118.787300 280 5974ft 116kts
13-Aug-20 08:47 34.054292 -118.824108 291 5971ft 115kts
13-Aug-20 08:48 34.065217 -118.860287 285 5982ft 114kts
13-Aug-20 08:49 34.074825 -118.896930 287 5988ft 115kts
13-Aug-20 08:50 34.084830 -118.933524 283 5993ft 114kts
13-Aug-20 08:51 34.093272 -118.970541 284 5998ft 114kts
13-Aug-20 08:52 34.104013 -119.006955 290 6004ft 115kts
13-Aug-20 08:53 34.114964 -119.043154 287 6003ft 115kts
13-Aug-20 08:54 34.127595 -119.078635 292 6005ft 115kts
13-Aug-20 08:55 34.141841 -119.113333 293 6004ft 115kts
13-Aug-20 08:56 34.156961 -119.147594 296 6003ft 116kts
13-Aug-20 08:57 34.172154 -119.181816 293 6006ft 115kts
13-Aug-20 08:58 34.186883 -119.216401 293 6007ft 115kts
13-Aug-20 08:59 34.199860 -119.251578 291 6008ft 115kts
13-Aug-20 09:00 34.215026 -119.285743 298 6007ft 116kts
13-Aug-20 09:01 34.229458 -119.320315 287 6009ft 114kts
13-Aug-20 09:02 34.241798 -119.355702 294 5856ft 111kts
13-Aug-20 09:03 34.257498 -119.387642 296 5234ft 110kts
13-Aug-20 09:04 34.270610 -119.420836 292 4645ft 109kts
13-Aug-20 09:05 34.278242 -119.439353 298 4321ft 108kts
13-Aug-20 09:06 34.292099 -119.470426 298 4031ft 99kts
13-Aug-20 09:07 34.297136 -119.481326 292 3967ft 104kts
13-Aug-20 09:08 34.314826 -119.511089 296 4121ft 112kts
13-Aug-20 09:09 34.333670 -119.545307 297 4052ft 131kts
13-Aug-20 09:10 34.355218 -119.582187 299 3996ft 135kts
13-Aug-20 09:11 34.375060 -119.616896 297 4031ft 122kts
13-Aug-20 09:12 34.395202 -119.650262 297 4057ft 126kts
13-Aug-20 09:13 34.407795 -119.686826 242 4004ft 109kts
13-Aug-20 09:14 34.385085 -119.701431 160 4033ft 103kts
13-Aug-20 09:15 34.374313 -119.666581 108 4050ft 118kts
13-Aug-20 09:16 34.363024 -119.629772 120 3549ft 117kts
13-Aug-20 09:17 34.337738 -119.614932 174 3018ft 97kts
13-Aug-20 09:18 34.312870 -119.603752 161 3022ft 98kts
13-Aug-20 09:19 34.286562 -119.589112 159 3010ft 106kts
13-Aug-20 09:20 34.289000 -119.560108 8 3089ft 134kts
13-Aug-20 09:21 34.322182 -119.578843 326 3060ft 135kts
13-Aug-20 09:22 34.350717 -119.605576 284 3025ft 125kts
13-Aug-20 09:23 34.362628 -119.644673 281 3016ft 123kts
13-Aug-20 09:24 34.376330 -119.679859 289 2268ft 110kts
13-Aug-20 09:25 34.388875 -119.710576 283 2104ft 97kts
13-Aug-20 09:26 34.401347 -119.741703 285 1557ft 106kts
13-Aug-20 09:27 34.414011 -119.773022 281 940ft 100kts
13-Aug-20 09:28 34.422105 -119.801005 269 909ft 84kts
13-Aug-20 09:29 34.428552 -119.828718 253 310ft 59kts
13-Aug-20 09:30 34.426983 -119.838449 164 11ft 1kts
13-Aug-20 09:31 34.426980 -119.838447 161 11ft 0kts
13-Aug-20 09:32 34.424402 -119.837645 164 12ft 15kts
13-Aug-20 09:33 34.422702 -119.836424 92 11ft 0kts

Navigation Log

Ident Type
Flight plan parsing failed, navigation log unavailable